Terminal Aerodrome Forecast
Issued by NWS

Home | Current Version | Previous Version | Graphics & Text | Print | Product List | Glossary On
Versions: 1 2 3 4 5 6 7 8 9 10 11 12 13 14 15 16 17 18 19 20 21 22 23 24 25 26 27
000
FTUS43 KLOT 041720
TAFGYY
TAF
KGYY 041720Z 0418/0518 13007KT 1SM -SN SCT007 OVC015
      TEMPO 0418/0420 3/4SM -SN OVC004
     FM042000 14008KT 3/4SM -SN OVC005
     FM042300 18005KT 3SM -SN BR OVC005
     FM050100 24007KT 5SM -SNDZ BR OVC006
     FM050400 24010KT P6SM OVC008
     FM051500 19010KT P6SM BKN008=

USA.gov is the U.S. government's official web portal to all federal, state and local government web resources and services.